sensor_id;sensor_type;location;lat;lon;timestamp;temperature;humidity
10802;DHT22;5453;50.852;7.102;2023-07-13T00:00:13;19.40;82.60
10802;DHT22;5453;50.852;7.102;2023-07-13T00:02:47;19.40;82.90
10802;DHT22;5453;50.852;7.102;2023-07-13T00:05:19;19.30;83.40
10802;DHT22;5453;50.852;7.102;2023-07-13T00:07:53;19.30;84.10
10802;DHT22;5453;50.852;7.102;2023-07-13T00:10:26;19.20;84.10
10802;DHT22;5453;50.852;7.102;2023-07-13T00:12:58;19.10;84.50
10802;DHT22;5453;50.852;7.102;2023-07-13T00:15:31;19.10;85.30
10802;DHT22;5453;50.852;7.102;2023-07-13T00:18:04;19.00;85.90
10802;DHT22;5453;50.852;7.102;2023-07-13T00:20:36;18.90;86.60
10802;DHT22;5453;50.852;7.102;2023-07-13T00:23:10;18.90;87.30
10802;DHT22;5453;50.852;7.102;2023-07-13T00:25:43;18.90;87.00
10802;DHT22;5453;50.852;7.102;2023-07-13T00:28:15;18.90;86.90
10802;DHT22;5453;50.852;7.102;2023-07-13T00:30:48;18.90;87.00
10802;DHT22;5453;50.852;7.102;2023-07-13T00:33:21;18.80;86.50
10802;DHT22;5453;50.852;7.102;2023-07-13T00:35:54;18.80;86.70
10802;DHT22;5453;50.852;7.102;2023-07-13T00:38:28;18.90;87.20
10802;DHT22;5453;50.852;7.102;2023-07-13T00:41:01;18.90;87.50
10802;DHT22;5453;50.852;7.102;2023-07-13T00:43:35;18.80;87.40
10802;DHT22;5453;50.852;7.102;2023-07-13T00:46:18;18.80;88.10
10802;DHT22;5453;50.852;7.102;2023-07-13T00:48:54;18.80;88.50
10802;DHT22;5453;50.852;7.102;2023-07-13T00:51:32;18.80;88.00
10802;DHT22;5453;50.852;7.102;2023-07-13T00:54:11;18.80;87.60
10802;DHT22;5453;50.852;7.102;2023-07-13T00:56:48;18.80;86.90
10802;DHT22;5453;50.852;7.102;2023-07-13T00:59:22;18.80;86.60
10802;DHT22;5453;50.852;7.102;2023-07-13T01:01:54;18.80;86.70
10802;DHT22;5453;50.852;7.102;2023-07-13T01:04:27;18.80;86.00
10802;DHT22;5453;50.852;7.102;2023-07-13T01:07:00;18.80;86.50
10802;DHT22;5453;50.852;7.102;2023-07-13T01:09:34;18.80;86.80
10802;DHT22;5453;50.852;7.102;2023-07-13T01:12:07;18.80;87.10
10802;DHT22;5453;50.852;7.102;2023-07-13T01:14:43;18.80;87.30
10802;DHT22;5453;50.852;7.102;2023-07-13T01:17:16;18.80;87.80
10802;DHT22;5453;50.852;7.102;2023-07-13T01:19:48;18.70;88.10
10802;DHT22;5453;50.852;7.102;2023-07-13T01:22:22;18.70;88.20
10802;DHT22;5453;50.852;7.102;2023-07-13T01:25:01;18.60;88.30
10802;DHT22;5453;50.852;7.102;2023-07-13T01:27:34;18.60;88.60
10802;DHT22;5453;50.852;7.102;2023-07-13T01:30:07;18.60;88.90
10802;DHT22;5453;50.852;7.102;2023-07-13T01:32:40;18.50;89.00
10802;DHT22;5453;50.852;7.102;2023-07-13T01:35:13;18.50;89.30
10802;DHT22;5453;50.852;7.102;2023-07-13T01:37:48;18.50;89.70
10802;DHT22;5453;50.852;7.102;2023-07-13T01:40:21;18.50;89.80
10802;DHT22;5453;50.852;7.102;2023-07-13T01:42:57;18.40;89.00
10802;DHT22;5453;50.852;7.102;2023-07-13T01:45:30;18.40;89.00
10802;DHT22;5453;50.852;7.102;2023-07-13T01:48:03;18.40;89.20
10802;DHT22;5453;50.852;7.102;2023-07-13T01:50:37;18.40;89.60
10802;DHT22;5453;50.852;7.102;2023-07-13T01:53:14;18.40;90.10
10802;DHT22;5453;50.852;7.102;2023-07-13T01:55:47;18.40;90.40
10802;DHT22;5453;50.852;7.102;2023-07-13T01:58:19;18.30;90.30
10802;DHT22;5453;50.852;7.102;2023-07-13T02:00:52;18.30;90.50
10802;DHT22;5453;50.852;7.102;2023-07-13T02:03:25;18.30;90.50
10802;DHT22;5453;50.852;7.102;2023-07-13T02:05:58;18.30;90.20
10802;DHT22;5453;50.852;7.102;2023-07-13T02:08:32;18.30;90.30
10802;DHT22;5453;50.852;7.102;2023-07-13T02:11:05;18.30;90.60
10802;DHT22;5453;50.852;7.102;2023-07-13T02:13:37;18.30;90.80
10802;DHT22;5453;50.852;7.102;2023-07-13T02:16:10;18.30;91.00
10802;DHT22;5453;50.852;7.102;2023-07-13T02:18:42;18.20;91.20
10802;DHT22;5453;50.852;7.102;2023-07-13T02:21:14;18.20;91.30
10802;DHT22;5453;50.852;7.102;2023-07-13T02:23:48;18.20;91.50
10802;DHT22;5453;50.852;7.102;2023-07-13T02:26:21;18.10;91.60
10802;DHT22;5453;50.852;7.102;2023-07-13T02:28:53;18.10;91.80
10802;DHT22;5453;50.852;7.102;2023-07-13T02:31:26;18.10;92.00
10802;DHT22;5453;50.852;7.102;2023-07-13T02:33:58;18.00;92.30
10802;DHT22;5453;50.852;7.102;2023-07-13T02:36:31;18.00;92.50
10802;DHT22;5453;50.852;7.102;2023-07-13T02:39:06;18.00;92.50
10802;DHT22;5453;50.852;7.102;2023-07-13T02:41:40;18.00;92.50
10802;DHT22;5453;50.852;7.102;2023-07-13T02:44:13;18.00;92.40
10802;DHT22;5453;50.852;7.102;2023-07-13T02:46:46;18.00;92.40
10802;DHT22;5453;50.852;7.102;2023-07-13T02:49:18;18.10;92.40
10802;DHT22;5453;50.852;7.102;2023-07-13T02:51:51;18.10;92.40
10802;DHT22;5453;50.852;7.102;2023-07-13T02:54:25;18.00;92.30
10802;DHT22;5453;50.852;7.102;2023-07-13T02:56:57;18.10;92.40
10802;DHT22;5453;50.852;7.102;2023-07-13T02:59:30;18.10;92.40
10802;DHT22;5453;50.852;7.102;2023-07-13T03:02:03;18.10;92.40
10802;DHT22;5453;50.852;7.102;2023-07-13T03:04:36;18.10;92.50
10802;DHT22;5453;50.852;7.102;2023-07-13T03:07:10;18.10;92.50
10802;DHT22;5453;50.852;7.102;2023-07-13T03:09:44;18.10;92.50
10802;DHT22;5453;50.852;7.102;2023-07-13T03:12:16;18.10;92.20
10802;DHT22;5453;50.852;7.102;2023-07-13T03:14:49;18.10;92.10
10802;DHT22;5453;50.852;7.102;2023-07-13T03:17:21;18.10;92.30
10802;DHT22;5453;50.852;7.102;2023-07-13T03:19:53;18.00;92.10
10802;DHT22;5453;50.852;7.102;2023-07-13T03:22:26;18.00;91.80
10802;DHT22;5453;50.852;7.102;2023-07-13T03:25:00;18.00;91.70
10802;DHT22;5453;50.852;7.102;2023-07-13T03:27:33;18.00;91.50
10802;DHT22;5453;50.852;7.102;2023-07-13T03:30:07;18.00;91.40
10802;DHT22;5453;50.852;7.102;2023-07-13T03:32:41;18.00;91.30
10802;DHT22;5453;50.852;7.102;2023-07-13T03:35:14;18.00;91.20
10802;DHT22;5453;50.852;7.102;2023-07-13T03:37:46;18.00;91.40
10802;DHT22;5453;50.852;7.102;2023-07-13T03:40:24;18.00;91.30
10802;DHT22;5453;50.852;7.102;2023-07-13T03:43:00;18.00;91.30
10802;DHT22;5453;50.852;7.102;2023-07-13T03:45:34;18.10;91.30
10802;DHT22;5453;50.852;7.102;2023-07-13T03:48:07;18.10;91.40
10802;DHT22;5453;50.852;7.102;2023-07-13T03:50:40;18.20;91.50
10802;DHT22;5453;50.852;7.102;2023-07-13T03:53:16;18.20;91.50
10802;DHT22;5453;50.852;7.102;2023-07-13T03:55:51;18.20;91.50
10802;DHT22;5453;50.852;7.102;2023-07-13T03:58:27;18.30;91.50
10802;DHT22;5453;50.852;7.102;2023-07-13T04:01:10;18.30;91.30
10802;DHT22;5453;50.852;7.102;2023-07-13T04:03:44;18.30;91.20
10802;DHT22;5453;50.852;7.102;2023-07-13T04:06:19;18.30;91.10
10802;DHT22;5453;50.852;7.102;2023-07-13T04:08:54;18.30;91.00
10802;DHT22;5453;50.852;7.102;2023-07-13T04:11:32;18.40;91.10
10802;DHT22;5453;50.852;7.102;2023-07-13T04:14:06;18.30;91.20
10802;DHT22;5453;50.852;7.102;2023-07-13T04:16:39;18.30;91.20
10802;DHT22;5453;50.852;7.102;2023-07-13T04:19:14;18.30;91.10
10802;DHT22;5453;50.852;7.102;2023-07-13T04:21:47;18.30;91.20
10802;DHT22;5453;50.852;7.102;2023-07-13T04:24:19;18.30;91.20
10802;DHT22;5453;50.852;7.102;2023-07-13T04:26:53;18.30;91.50
10802;DHT22;5453;50.852;7.102;2023-07-13T04:29:30;18.30;91.60
10802;DHT22;5453;50.852;7.102;2023-07-13T04:32:03;18.30;91.70
10802;DHT22;5453;50.852;7.102;2023-07-13T04:34:36;18.30;91.70
10802;DHT22;5453;50.852;7.102;2023-07-13T04:37:08;18.40;91.70
10802;DHT22;5453;50.852;7.102;2023-07-13T04:39:41;18.50;91.50
10802;DHT22;5453;50.852;7.102;2023-07-13T04:42:15;18.60;91.30
10802;DHT22;5453;50.852;7.102;2023-07-13T04:44:48;18.60;91.30
10802;DHT22;5453;50.852;7.102;2023-07-13T04:47:21;18.70;91.20
10802;DHT22;5453;50.852;7.102;2023-07-13T04:49:53;18.70;91.20
10802;DHT22;5453;50.852;7.102;2023-07-13T04:52:25;18.80;91.20
10802;DHT22;5453;50.852;7.102;2023-07-13T04:54:58;18.80;91.20
10802;DHT22;5453;50.852;7.102;2023-07-13T04:57:36;19.30;91.60
10802;DHT22;5453;50.852;7.102;2023-07-13T05:00:09;20.60;90.50
10802;DHT22;5453;50.852;7.102;2023-07-13T05:02:44;22.30;86.50
10802;DHT22;5453;50.852;7.102;2023-07-13T05:05:17;24.10;80.80
10802;DHT22;5453;50.852;7.102;2023-07-13T05:07:49;25.60;75.40
10802;DHT22;5453;50.852;7.102;2023-07-13T05:10:22;27.00;71.80
10802;DHT22;5453;50.852;7.102;2023-07-13T05:12:56;28.20;68.40
10802;DHT22;5453;50.852;7.102;2023-07-13T05:15:29;29.30;65.00
10802;DHT22;5453;50.852;7.102;2023-07-13T05:18:01;30.10;62.20
10802;DHT22;5453;50.852;7.102;2023-07-13T05:20:33;30.90;60.10
10802;DHT22;5453;50.852;7.102;2023-07-13T05:23:06;31.50;58.30
10802;DHT22;5453;50.852;7.102;2023-07-13T05:25:39;32.10;56.80
10802;DHT22;5453;50.852;7.102;2023-07-13T05:28:12;32.60;55.70
10802;DHT22;5453;50.852;7.102;2023-07-13T05:30:45;33.00;54.40
10802;DHT22;5453;50.852;7.102;2023-07-13T05:33:21;33.40;53.60
10802;DHT22;5453;50.852;7.102;2023-07-13T05:35:53;33.90;52.90
10802;DHT22;5453;50.852;7.102;2023-07-13T05:38:26;34.20;51.90
10802;DHT22;5453;50.852;7.102;2023-07-13T05:40:59;34.50;51.20
10802;DHT22;5453;50.852;7.102;2023-07-13T05:43:36;34.90;50.30
10802;DHT22;5453;50.852;7.102;2023-07-13T05:46:08;35.20;49.60
10802;DHT22;5453;50.852;7.102;2023-07-13T05:48:41;35.30;49.40
10802;DHT22;5453;50.852;7.102;2023-07-13T05:51:13;35.00;49.40
10802;DHT22;5453;50.852;7.102;2023-07-13T05:53:46;35.20;49.50
10802;DHT22;5453;50.852;7.102;2023-07-13T05:56:18;35.40;48.70
10802;DHT22;5453;50.852;7.102;2023-07-13T05:58:52;35.00;49.00
10802;DHT22;5453;50.852;7.102;2023-07-13T06:01:24;34.60;49.40
10802;DHT22;5453;50.852;7.102;2023-07-13T06:03:57;34.50;49.40
10802;DHT22;5453;50.852;7.102;2023-07-13T06:06:29;34.80;49.60
10802;DHT22;5453;50.852;7.102;2023-07-13T06:09:01;35.40;48.80
10802;DHT22;5453;50.852;7.102;2023-07-13T06:11:37;35.60;48.10
10802;DHT22;5453;50.852;7.102;2023-07-13T06:14:11;34.60;48.40
10802;DHT22;5453;50.852;7.102;2023-07-13T06:16:43;33.60;49.70
10802;DHT22;5453;50.852;7.102;2023-07-13T06:19:16;33.20;50.50
10802;DHT22;5453;50.852;7.102;2023-07-13T06:21:48;33.40;50.70
10802;DHT22;5453;50.852;7.102;2023-07-13T06:24:21;33.80;49.80
10802;DHT22;5453;50.852;7.102;2023-07-13T06:26:53;33.80;49.90
10802;DHT22;5453;50.852;7.102;2023-07-13T06:29:27;33.30;50.30
10802;DHT22;5453;50.852;7.102;2023-07-13T06:32:00;32.70;51.00
10802;DHT22;5453;50.852;7.102;2023-07-13T06:34:33;32.00;51.70
10802;DHT22;5453;50.852;7.102;2023-07-13T06:37:06;31.40;52.60
10802;DHT22;5453;50.852;7.102;2023-07-13T06:39:38;30.80;53.50
10802;DHT22;5453;50.852;7.102;2023-07-13T06:42:11;30.30;54.60
10802;DHT22;5453;50.852;7.102;2023-07-13T06:44:46;30.50;55.20
10802;DHT22;5453;50.852;7.102;2023-07-13T06:47:18;31.30;54.40
10802;DHT22;5453;50.852;7.102;2023-07-13T06:49:50;32.20;53.20
10802;DHT22;5453;50.852;7.102;2023-07-13T06:52:23;33.00;52.10
10802;DHT22;5453;50.852;7.102;2023-07-13T06:54:55;33.10;51.60
10802;DHT22;5453;50.852;7.102;2023-07-13T06:57:27;32.60;51.90
10802;DHT22;5453;50.852;7.102;2023-07-13T07:00:01;32.10;52.60
10802;DHT22;5453;50.852;7.102;2023-07-13T07:02:34;31.90;53.10
10802;DHT22;5453;50.852;7.102;2023-07-13T07:05:07;32.00;53.10
10802;DHT22;5453;50.852;7.102;2023-07-13T07:07:42;32.10;53.00
10802;DHT22;5453;50.852;7.102;2023-07-13T07:10:14;32.00;53.20
10802;DHT22;5453;50.852;7.102;2023-07-13T07:12:47;31.50;53.70
10802;DHT22;5453;50.852;7.102;2023-07-13T07:15:21;30.60;54.70
10802;DHT22;5453;50.852;7.102;2023-07-13T07:17:53;29.60;56.10
10802;DHT22;5453;50.852;7.102;2023-07-13T07:20:25;28.90;57.60
10802;DHT22;5453;50.852;7.102;2023-07-13T07:22:58;28.30;58.50
10802;DHT22;5453;50.852;7.102;2023-07-13T07:25:30;27.80;59.50
10802;DHT22;5453;50.852;7.102;2023-07-13T07:28:05;27.40;60.30
10802;DHT22;5453;50.852;7.102;2023-07-13T07:30:41;26.90;61.00
10802;DHT22;5453;50.852;7.102;2023-07-13T07:33:14;26.40;61.80
10802;DHT22;5453;50.852;7.102;2023-07-13T07:35:47;25.90;62.70
10802;DHT22;5453;50.852;7.102;2023-07-13T07:38:19;25.40;64.00
10802;DHT22;5453;50.852;7.102;2023-07-13T07:40:52;25.00;65.20
10802;DHT22;5453;50.852;7.102;2023-07-13T07:43:25;24.80;66.20
10802;DHT22;5453;50.852;7.102;2023-07-13T07:45:58;24.90;66.90
10802;DHT22;5453;50.852;7.102;2023-07-13T07:48:31;25.00;67.00
10802;DHT22;5453;50.852;7.102;2023-07-13T07:51:03;25.10;66.40
10802;DHT22;5453;50.852;7.102;2023-07-13T07:53:36;25.20;66.60
10802;DHT22;5453;50.852;7.102;2023-07-13T07:56:08;25.30;66.90
10802;DHT22;5453;50.852;7.102;2023-07-13T07:58:40;25.50;66.80
10802;DHT22;5453;50.852;7.102;2023-07-13T08:01:14;25.60;66.60
10802;DHT22;5453;50.852;7.102;2023-07-13T08:03:50;25.80;66.30
10802;DHT22;5453;50.852;7.102;2023-07-13T08:06:23;26.00;65.40
10802;DHT22;5453;50.852;7.102;2023-07-13T08:08:55;26.10;65.80
10802;DHT22;5453;50.852;7.102;2023-07-13T08:11:28;26.30;65.60
10802;DHT22;5453;50.852;7.102;2023-07-13T08:14:00;26.40;64.80
10802;DHT22;5453;50.852;7.102;2023-07-13T08:16:34;26.50;64.90
10802;DHT22;5453;50.852;7.102;2023-07-13T08:19:06;26.50;64.60
10802;DHT22;5453;50.852;7.102;2023-07-13T08:21:42;26.60;64.60
10802;DHT22;5453;50.852;7.102;2023-07-13T08:24:15;26.70;64.80
10802;DHT22;5453;50.852;7.102;2023-07-13T08:26:49;26.60;64.90
10802;DHT22;5453;50.852;7.102;2023-07-13T08:29:23;26.60;64.90
10802;DHT22;5453;50.852;7.102;2023-07-13T08:31:57;26.40;64.60
10802;DHT22;5453;50.852;7.102;2023-07-13T08:34:29;26.20;64.90
10802;DHT22;5453;50.852;7.102;2023-07-13T08:37:02;26.40;65.70
10802;DHT22;5453;50.852;7.102;2023-07-13T08:39:38;26.70;65.60
10802;DHT22;5453;50.852;7.102;2023-07-13T08:42:22;27.40;64.60
10802;DHT22;5453;50.852;7.102;2023-07-13T08:45:08;28.10;63.60
10802;DHT22;5453;50.852;7.102;2023-07-13T08:47:53;28.90;62.30
10802;DHT22;5453;50.852;7.102;2023-07-13T08:50:31;29.70;61.00
10802;DHT22;5453;50.852;7.102;2023-07-13T08:53:07;30.80;59.10
10802;DHT22;5453;50.852;7.102;2023-07-13T08:55:43;31.70;57.00
10802;DHT22;5453;50.852;7.102;2023-07-13T08:58:18;32.30;55.60
10802;DHT22;5453;50.852;7.102;2023-07-13T09:01:05;32.30;55.10
10802;DHT22;5453;50.852;7.102;2023-07-13T09:03:50;32.20;55.10
10802;DHT22;5453;50.852;7.102;2023-07-13T09:06:34;31.90;54.80
10802;DHT22;5453;50.852;7.102;2023-07-13T09:09:22;31.20;55.10
10802;DHT22;5453;50.852;7.102;2023-07-13T09:12:04;30.50;56.50
10802;DHT22;5453;50.852;7.102;2023-07-13T09:14:45;30.10;57.20
10802;DHT22;5453;50.852;7.102;2023-07-13T09:17:22;29.70;57.50
10802;DHT22;5453;50.852;7.102;2023-07-13T09:20:00;29.40;58.30
10802;DHT22;5453;50.852;7.102;2023-07-13T09:22:36;29.20;58.80
10802;DHT22;5453;50.852;7.102;2023-07-13T09:25:21;28.60;59.20
10802;DHT22;5453;50.852;7.102;2023-07-13T09:28:05;28.30;60.30
10802;DHT22;5453;50.852;7.102;2023-07-13T09:30:52;28.30;60.90
10802;DHT22;5453;50.852;7.102;2023-07-13T09:33:28;28.50;60.70
10802;DHT22;5453;50.852;7.102;2023-07-13T09:36:19;28.40;60.30
10802;DHT22;5453;50.852;7.102;2023-07-13T09:39:02;28.30;60.80
10802;DHT22;5453;50.852;7.102;2023-07-13T09:41:41;28.20;60.70
10802;DHT22;5453;50.852;7.102;2023-07-13T09:44:26;28.20;61.30
10802;DHT22;5453;50.852;7.102;2023-07-13T09:47:02;28.10;61.20
10802;DHT22;5453;50.852;7.102;2023-07-13T09:49:36;27.90;61.30
10802;DHT22;5453;50.852;7.102;2023-07-13T09:52:13;27.80;62.00
10802;DHT22;5453;50.852;7.102;2023-07-13T09:54:52;27.70;62.40
10802;DHT22;5453;50.852;7.102;2023-07-13T09:57:29;27.60;62.70
10802;DHT22;5453;50.852;7.102;2023-07-13T10:00:18;27.40;62.20
10802;DHT22;5453;50.852;7.102;2023-07-13T10:03:01;27.20;63.30
10802;DHT22;5453;50.852;7.102;2023-07-13T10:05:40;27.10;63.70
10802;DHT22;5453;50.852;7.102;2023-07-13T10:08:23;27.00;63.50
10802;DHT22;5453;50.852;7.102;2023-07-13T10:11:00;26.80;63.70
10802;DHT22;5453;50.852;7.102;2023-07-13T10:13:37;26.60;64.10
10802;DHT22;5453;50.852;7.102;2023-07-13T10:16:12;26.50;65.10
10802;DHT22;5453;50.852;7.102;2023-07-13T10:18:46;26.40;65.30
10802;DHT22;5453;50.852;7.102;2023-07-13T10:21:21;26.10;65.30
10802;DHT22;5453;50.852;7.102;2023-07-13T10:24:10;25.90;65.70
10802;DHT22;5453;50.852;7.102;2023-07-13T10:26:50;25.80;66.60
10802;DHT22;5453;50.852;7.102;2023-07-13T10:29:28;25.70;66.40
10802;DHT22;5453;50.852;7.102;2023-07-13T10:32:09;25.80;66.80
10802;DHT22;5453;50.852;7.102;2023-07-13T10:34:44;26.00;66.90
10802;DHT22;5453;50.852;7.102;2023-07-13T10:37:27;26.10;66.30
10802;DHT22;5453;50.852;7.102;2023-07-13T10:40:06;26.00;65.60
10802;DHT22;5453;50.852;7.102;2023-07-13T10:42:47;25.80;65.90
10802;DHT22;5453;50.852;7.102;2023-07-13T10:45:24;25.70;66.30
10802;DHT22;5453;50.852;7.102;2023-07-13T10:47:57;25.60;66.60
10802;DHT22;5453;50.852;7.102;2023-07-13T10:50:30;25.60;66.70
10802;DHT22;5453;50.852;7.102;2023-07-13T10:53:21;25.60;66.70
10802;DHT22;5453;50.852;7.102;2023-07-13T10:56:01;25.70;66.60
10802;DHT22;5453;50.852;7.102;2023-07-13T10:58:38;25.70;66.50
10802;DHT22;5453;50.852;7.102;2023-07-13T11:01:14;25.70;65.80
10802;DHT22;5453;50.852;7.102;2023-07-13T11:03:49;25.50;65.50
10802;DHT22;5453;50.852;7.102;2023-07-13T11:06:36;25.50;65.90
10802;DHT22;5453;50.852;7.102;2023-07-13T11:09:32;25.60;65.60
10802;DHT22;5453;50.852;7.102;2023-07-13T11:12:51;25.60;65.80
10802;DHT22;5453;50.852;7.102;2023-07-13T11:15:43;25.60;65.40
10802;DHT22;5453;50.852;7.102;2023-07-13T11:18:21;25.40;65.10
10802;DHT22;5453;50.852;7.102;2023-07-13T11:21:14;25.20;65.30
10802;DHT22;5453;50.852;7.102;2023-07-13T11:23:52;25.10;65.30
10802;DHT22;5453;50.852;7.102;2023-07-13T11:26:40;24.90;65.60
10802;DHT22;5453;50.852;7.102;2023-07-13T11:29:25;24.80;65.30
10802;DHT22;5453;50.852;7.102;2023-07-13T11:32:23;24.80;65.90
10802;DHT22;5453;50.852;7.102;2023-07-13T11:34:57;24.90;65.50
10802;DHT22;5453;50.852;7.102;2023-07-13T11:37:30;24.90;65.20
10802;DHT22;5453;50.852;7.102;2023-07-13T11:40:03;24.80;64.80
10802;DHT22;5453;50.852;7.102;2023-07-13T11:42:37;24.70;65.50
10802;DHT22;5453;50.852;7.102;2023-07-13T11:45:21;24.80;65.90
10802;DHT22;5453;50.852;7.102;2023-07-13T11:47:54;24.80;66.00
10802;DHT22;5453;50.852;7.102;2023-07-13T11:50:30;24.80;66.70
10802;DHT22;5453;50.852;7.102;2023-07-13T11:53:03;24.80;66.90
10802;DHT22;5453;50.852;7.102;2023-07-13T11:55:38;24.70;67.30
10802;DHT22;5453;50.852;7.102;2023-07-13T11:58:11;24.60;67.00
10802;DHT22;5453;50.852;7.102;2023-07-13T12:00:45;24.60;67.10
10802;DHT22;5453;50.852;7.102;2023-07-13T12:03:20;24.50;67.10
10802;DHT22;5453;50.852;7.102;2023-07-13T12:05:59;24.50;67.50
10802;DHT22;5453;50.852;7.102;2023-07-13T12:08:38;24.50;67.40
10802;DHT22;5453;50.852;7.102;2023-07-13T12:11:16;24.50;67.60
10802;DHT22;5453;50.852;7.102;2023-07-13T12:13:50;24.50;67.70
10802;DHT22;5453;50.852;7.102;2023-07-13T12:16:29;24.50;68.00
10802;DHT22;5453;50.852;7.102;2023-07-13T12:19:03;24.50;68.60
10802;DHT22;5453;50.852;7.102;2023-07-13T12:21:41;24.50;68.30
10802;DHT22;5453;50.852;7.102;2023-07-13T12:24:15;24.40;68.30
10802;DHT22;5453;50.852;7.102;2023-07-13T12:26:55;24.40;68.60
10802;DHT22;5453;50.852;7.102;2023-07-13T12:29:32;24.30;68.70
10802;DHT22;5453;50.852;7.102;2023-07-13T12:32:09;24.30;68.60
10802;DHT22;5453;50.852;7.102;2023-07-13T12:34:52;24.30;68.70
10802;DHT22;5453;50.852;7.102;2023-07-13T12:37:26;24.30;68.40
10802;DHT22;5453;50.852;7.102;2023-07-13T12:40:04;24.30;67.90
10802;DHT22;5453;50.852;7.102;2023-07-13T12:42:40;24.30;68.00
10802;DHT22;5453;50.852;7.102;2023-07-13T12:45:18;24.20;68.30
10802;DHT22;5453;50.852;7.102;2023-07-13T12:47:56;24.20;68.50
10802;DHT22;5453;50.852;7.102;2023-07-13T12:50:34;24.20;68.70
10802;DHT22;5453;50.852;7.102;2023-07-13T12:53:13;24.30;68.30
10802;DHT22;5453;50.852;7.102;2023-07-13T12:55:48;24.40;66.70
10802;DHT22;5453;50.852;7.102;2023-07-13T12:58:27;24.50;66.10
10802;DHT22;5453;50.852;7.102;2023-07-13T13:01:10;24.60;65.90
10802;DHT22;5453;50.852;7.102;2023-07-13T13:03:48;24.70;65.60
10802;DHT22;5453;50.852;7.102;2023-07-13T13:06:24;24.70;65.50
10802;DHT22;5453;50.852;7.102;2023-07-13T13:08:59;24.70;65.10
10802;DHT22;5453;50.852;7.102;2023-07-13T13:11:32;24.60;65.20
10802;DHT22;5453;50.852;7.102;2023-07-13T13:14:09;24.50;65.30
10802;DHT22;5453;50.852;7.102;2023-07-13T13:16:46;24.60;65.50
10802;DHT22;5453;50.852;7.102;2023-07-13T13:19:23;24.60;65.50
10802;DHT22;5453;50.852;7.102;2023-07-13T13:21:57;24.60;65.90
10802;DHT22;5453;50.852;7.102;2023-07-13T13:24:30;24.60;65.30
10802;DHT22;5453;50.852;7.102;2023-07-13T13:27:03;24.60;65.90
10802;DHT22;5453;50.852;7.102;2023-07-13T13:29:37;24.60;65.70
10802;DHT22;5453;50.852;7.102;2023-07-13T13:32:14;24.70;65.20
10802;DHT22;5453;50.852;7.102;2023-07-13T13:34:48;24.80;65.00
10802;DHT22;5453;50.852;7.102;2023-07-13T13:37:23;24.90;65.10
10802;DHT22;5453;50.852;7.102;2023-07-13T13:39:56;25.10;64.70
10802;DHT22;5453;50.852;7.102;2023-07-13T13:42:28;25.30;63.90
10802;DHT22;5453;50.852;7.102;2023-07-13T13:45:00;25.50;64.00
10802;DHT22;5453;50.852;7.102;2023-07-13T13:47:34;25.80;63.70
10802;DHT22;5453;50.852;7.102;2023-07-13T13:50:13;26.00;63.50
10802;DHT22;5453;50.852;7.102;2023-07-13T13:52:47;26.20;63.40
10802;DHT22;5453;50.852;7.102;2023-07-13T13:55:21;26.30;63.70
10802;DHT22;5453;50.852;7.102;2023-07-13T13:57:54;26.50;63.30
10802;DHT22;5453;50.852;7.102;2023-07-13T14:00:27;26.50;62.90
10802;DHT22;5453;50.852;7.102;2023-07-13T14:02:59;26.60;63.20
10802;DHT22;5453;50.852;7.102;2023-07-13T14:05:33;26.60;62.20
10802;DHT22;5453;50.852;7.102;2023-07-13T14:08:11;26.60;62.50
10802;DHT22;5453;50.852;7.102;2023-07-13T14:10:46;26.60;62.10
10802;DHT22;5453;50.852;7.102;2023-07-13T14:13:22;26.70;61.40
10802;DHT22;5453;50.852;7.102;2023-07-13T14:15:58;26.70;61.50
10802;DHT22;5453;50.852;7.102;2023-07-13T14:18:31;26.70;60.50
10802;DHT22;5453;50.852;7.102;2023-07-13T14:21:10;26.80;59.80
10802;DHT22;5453;50.852;7.102;2023-07-13T14:23:45;26.90;59.50
10802;DHT22;5453;50.852;7.102;2023-07-13T14:26:20;26.90;58.90
10802;DHT22;5453;50.852;7.102;2023-07-13T14:28:55;27.00;59.00
10802;DHT22;5453;50.852;7.102;2023-07-13T14:31:28;27.00;59.20
10802;DHT22;5453;50.852;7.102;2023-07-13T14:34:00;27.10;59.60
10802;DHT22;5453;50.852;7.102;2023-07-13T14:36:36;27.20;59.70
10802;DHT22;5453;50.852;7.102;2023-07-13T14:39:14;27.20;59.80
10802;DHT22;5453;50.852;7.102;2023-07-13T14:41:50;27.30;59.30
10802;DHT22;5453;50.852;7.102;2023-07-13T14:44:29;27.30;60.10
10802;DHT22;5453;50.852;7.102;2023-07-13T14:47:05;27.30;59.00
10802;DHT22;5453;50.852;7.102;2023-07-13T14:49:39;27.30;59.00
10802;DHT22;5453;50.852;7.102;2023-07-13T14:52:17;27.30;58.80
10802;DHT22;5453;50.852;7.102;2023-07-13T14:54:51;27.20;58.70
10802;DHT22;5453;50.852;7.102;2023-07-13T14:57:24;27.10;58.80
10802;DHT22;5453;50.852;7.102;2023-07-13T14:59:56;27.00;59.10
10802;DHT22;5453;50.852;7.102;2023-07-13T15:02:31;26.90;59.10
10802;DHT22;5453;50.852;7.102;2023-07-13T15:05:13;26.80;58.60
10802;DHT22;5453;50.852;7.102;2023-07-13T15:07:48;26.80;58.30
10802;DHT22;5453;50.852;7.102;2023-07-13T15:10:22;26.90;58.80
10802;DHT22;5453;50.852;7.102;2023-07-13T15:12:59;26.90;58.90
10802;DHT22;5453;50.852;7.102;2023-07-13T15:15:34;26.80;58.60
10802;DHT22;5453;50.852;7.102;2023-07-13T15:18:09;26.80;58.60
10802;DHT22;5453;50.852;7.102;2023-07-13T15:20:44;26.80;58.90
10802;DHT22;5453;50.852;7.102;2023-07-13T15:23:19;26.70;59.20
10802;DHT22;5453;50.852;7.102;2023-07-13T15:25:51;26.70;59.10
10802;DHT22;5453;50.852;7.102;2023-07-13T15:28:24;26.60;59.80
10802;DHT22;5453;50.852;7.102;2023-07-13T15:30:56;26.60;59.80
10802;DHT22;5453;50.852;7.102;2023-07-13T15:33:29;26.50;59.60
10802;DHT22;5453;50.852;7.102;2023-07-13T15:36:02;26.30;59.90
10802;DHT22;5453;50.852;7.102;2023-07-13T15:38:37;26.20;60.30
10802;DHT22;5453;50.852;7.102;2023-07-13T15:41:16;26.20;60.10
10802;DHT22;5453;50.852;7.102;2023-07-13T15:43:50;26.30;59.90
10802;DHT22;5453;50.852;7.102;2023-07-13T15:46:23;26.30;59.90
10802;DHT22;5453;50.852;7.102;2023-07-13T15:48:57;26.30;60.50
10802;DHT22;5453;50.852;7.102;2023-07-13T15:51:30;26.40;60.70
10802;DHT22;5453;50.852;7.102;2023-07-13T15:54:13;26.50;60.80
10802;DHT22;5453;50.852;7.102;2023-07-13T15:56:52;26.40;60.40
10802;DHT22;5453;50.852;7.102;2023-07-13T15:59:25;26.40;60.00
10802;DHT22;5453;50.852;7.102;2023-07-13T16:01:57;26.30;59.80
10802;DHT22;5453;50.852;7.102;2023-07-13T16:04:30;26.10;60.10
10802;DHT22;5453;50.852;7.102;2023-07-13T16:07:02;26.00;60.90
10802;DHT22;5453;50.852;7.102;2023-07-13T16:09:37;25.90;61.70
10802;DHT22;5453;50.852;7.102;2023-07-13T16:12:11;25.70;60.50
10802;DHT22;5453;50.852;7.102;2023-07-13T16:14:44;25.50;60.70
10802;DHT22;5453;50.852;7.102;2023-07-13T16:17:16;25.30;61.20
10802;DHT22;5453;50.852;7.102;2023-07-13T16:19:48;25.10;61.70
10802;DHT22;5453;50.852;7.102;2023-07-13T16:22:21;24.90;62.10
10802;DHT22;5453;50.852;7.102;2023-07-13T16:24:58;24.80;62.80
10802;DHT22;5453;50.852;7.102;2023-07-13T16:27:31;24.70;63.40
10802;DHT22;5453;50.852;7.102;2023-07-13T16:30:12;24.70;64.50
10802;DHT22;5453;50.852;7.102;2023-07-13T16:32:46;24.60;64.40
10802;DHT22;5453;50.852;7.102;2023-07-13T16:35:19;24.50;65.30